sensor_id;sensor_type;location;lat;lon;timestamp;temperature;humidity
22288;DHT22;11312;51.464;6.968;2022-09-13T00:00:21;18.70;1.00
22288;DHT22;11312;51.464;6.968;2022-09-13T00:02:48;18.60;99.90
22288;DHT22;11312;51.464;6.968;2022-09-13T00:05:14;18.50;1.00
22288;DHT22;11312;51.464;6.968;2022-09-13T00:07:39;18.50;99.90
22288;DHT22;11312;51.464;6.968;2022-09-13T00:10:05;18.40;99.90
22288;DHT22;11312;51.464;6.968;2022-09-13T00:12:31;18.60;1.00
22288;DHT22;11312;51.464;6.968;2022-09-13T00:14:57;18.60;1.00
22288;DHT22;11312;51.464;6.968;2022-09-13T00:17:22;18.80;1.00
22288;DHT22;11312;51.464;6.968;2022-09-13T00:19:48;18.70;1.00
22288;DHT22;11312;51.464;6.968;2022-09-13T00:22:14;18.60;99.90
22288;DHT22;11312;51.464;6.968;2022-09-13T00:24:39;18.50;99.90
22288;DHT22;11312;51.464;6.968;2022-09-13T00:27:05;18.80;99.90
22288;DHT22;11312;51.464;6.968;2022-09-13T00:29:31;18.60;99.90
22288;DHT22;11312;51.464;6.968;2022-09-13T00:31:57;18.60;99.90
22288;DHT22;11312;51.464;6.968;2022-09-13T00:34:23;18.70;99.90
22288;DHT22;11312;51.464;6.968;2022-09-13T00:36:48;18.70;99.90
22288;DHT22;11312;51.464;6.968;2022-09-13T00:39:14;18.60;99.90
22288;DHT22;11312;51.464;6.968;2022-09-13T00:41:39;18.60;99.90
22288;DHT22;11312;51.464;6.968;2022-09-13T00:47:11;18.60;52.60
22288;DHT22;11312;51.464;6.968;2022-09-13T00:49:39;18.70;99.90
22288;DHT22;11312;51.464;6.968;2022-09-13T00:52:11;18.70;99.90
22288;DHT22;11312;51.464;6.968;2022-09-13T00:54:51;18.70;99.90
22288;DHT22;11312;51.464;6.968;2022-09-13T00:57:21;18.70;99.90
22288;DHT22;11312;51.464;6.968;2022-09-13T01:00:13;18.50;99.90
22288;DHT22;11312;51.464;6.968;2022-09-13T01:02:54;18.50;67.60
22288;DHT22;11312;51.464;6.968;2022-09-13T01:05:24;18.50;99.90
22288;DHT22;11312;51.464;6.968;2022-09-13T01:07:50;18.50;1.00
22288;DHT22;11312;51.464;6.968;2022-09-13T01:10:16;18.40;99.90
22288;DHT22;11312;51.464;6.968;2022-09-13T01:12:56;18.40;1.00
22288;DHT22;11312;51.464;6.968;2022-09-13T01:15:24;18.50;1.00
22288;DHT22;11312;51.464;6.968;2022-09-13T01:17:51;18.40;1.00
22288;DHT22;11312;51.464;6.968;2022-09-13T01:20:21;18.50;99.90
22288;DHT22;11312;51.464;6.968;2022-09-13T01:31:36;18.30;99.90
22288;DHT22;11312;51.464;6.968;2022-09-13T01:39:37;18.20;1.00
22288;DHT22;11312;51.464;6.968;2022-09-13T01:44:49;18.20;1.00
22288;DHT22;11312;51.464;6.968;2022-09-13T01:47:28;18.20;99.90
22288;DHT22;11312;51.464;6.968;2022-09-13T01:50:14;18.20;99.90
22288;DHT22;11312;51.464;6.968;2022-09-13T01:52:57;18.20;99.90
22288;DHT22;11312;51.464;6.968;2022-09-13T02:01:12;18.40;99.90
22288;DHT22;11312;51.464;6.968;2022-09-13T02:03:52;18.30;99.90
22288;DHT22;11312;51.464;6.968;2022-09-13T02:06:43;18.40;1.00
22288;DHT22;11312;51.464;6.968;2022-09-13T02:09:20;18.40;53.80
22288;DHT22;11312;51.464;6.968;2022-09-13T02:11:49;18.30;99.90
22288;DHT22;11312;51.464;6.968;2022-09-13T02:14:54;18.40;99.90
22288;DHT22;11312;51.464;6.968;2022-09-13T02:17:23;18.30;99.90
22288;DHT22;11312;51.464;6.968;2022-09-13T02:20:01;18.30;99.90
22288;DHT22;11312;51.464;6.968;2022-09-13T02:22:31;18.20;1.00
22288;DHT22;11312;51.464;6.968;2022-09-13T02:25:12;18.20;1.00
22288;DHT22;11312;51.464;6.968;2022-09-13T02:27:40;18.10;99.90
22288;DHT22;11312;51.464;6.968;2022-09-13T02:30:09;18.20;1.00
22288;DHT22;11312;51.464;6.968;2022-09-13T02:32:41;18.10;1.00
22288;DHT22;11312;51.464;6.968;2022-09-13T02:35:22;18.20;1.00
22288;DHT22;11312;51.464;6.968;2022-09-13T02:38:11;18.20;1.00
22288;DHT22;11312;51.464;6.968;2022-09-13T02:40:42;18.10;1.00
22288;DHT22;11312;51.464;6.968;2022-09-13T02:43:20;18.20;1.00
22288;DHT22;11312;51.464;6.968;2022-09-13T02:45:51;18.20;1.00
22288;DHT22;11312;51.464;6.968;2022-09-13T02:48:48;18.20;1.00
22288;DHT22;11312;51.464;6.968;2022-09-13T02:54:25;18.20;99.90
22288;DHT22;11312;51.464;6.968;2022-09-13T02:57:04;18.30;1.00
22288;DHT22;11312;51.464;6.968;2022-09-13T02:59:31;18.30;1.00
22288;DHT22;11312;51.464;6.968;2022-09-13T03:02:13;18.30;1.00
22288;DHT22;11312;51.464;6.968;2022-09-13T03:04:40;18.30;1.00
22288;DHT22;11312;51.464;6.968;2022-09-13T03:07:12;18.30;99.90
22288;DHT22;11312;51.464;6.968;2022-09-13T03:10:03;18.30;99.90
22288;DHT22;11312;51.464;6.968;2022-09-13T03:15:41;18.40;1.00
22288;DHT22;11312;51.464;6.968;2022-09-13T03:18:42;18.40;1.00
22288;DHT22;11312;51.464;6.968;2022-09-13T03:21:36;18.30;99.90
22288;DHT22;11312;51.464;6.968;2022-09-13T03:24:24;18.30;99.90
22288;DHT22;11312;51.464;6.968;2022-09-13T03:29:40;18.40;99.90
22288;DHT22;11312;51.464;6.968;2022-09-13T03:38:06;18.40;99.90
22288;DHT22;11312;51.464;6.968;2022-09-13T03:40:34;18.30;1.00
22288;DHT22;11312;51.464;6.968;2022-09-13T03:43:15;18.30;99.90
22288;DHT22;11312;51.464;6.968;2022-09-13T03:45:47;18.30;99.90
22288;DHT22;11312;51.464;6.968;2022-09-13T03:48:15;18.20;99.90
22288;DHT22;11312;51.464;6.968;2022-09-13T03:50:42;18.20;1.00
22288;DHT22;11312;51.464;6.968;2022-09-13T03:53:12;18.10;1.00
22288;DHT22;11312;51.464;6.968;2022-09-13T03:55:41;18.10;1.00
22288;DHT22;11312;51.464;6.968;2022-09-13T03:58:18;18.00;1.00
22288;DHT22;11312;51.464;6.968;2022-09-13T04:00:44;18.00;1.00
22288;DHT22;11312;51.464;6.968;2022-09-13T04:03:11;18.00;1.00
22288;DHT22;11312;51.464;6.968;2022-09-13T04:05:37;17.90;73.90
22288;DHT22;11312;51.464;6.968;2022-09-13T04:08:04;17.90;99.90
22288;DHT22;11312;51.464;6.968;2022-09-13T04:10:31;17.80;99.90
22288;DHT22;11312;51.464;6.968;2022-09-13T04:12:58;17.80;99.90
22288;DHT22;11312;51.464;6.968;2022-09-13T04:15:28;17.90;99.90
22288;DHT22;11312;51.464;6.968;2022-09-13T04:17:55;17.90;99.90
22288;DHT22;11312;51.464;6.968;2022-09-13T04:20:21;17.80;72.90
22288;DHT22;11312;51.464;6.968;2022-09-13T04:22:51;17.90;99.90
22288;DHT22;11312;51.464;6.968;2022-09-13T04:25:16;17.80;42.20
22288;DHT22;11312;51.464;6.968;2022-09-13T04:27:42;17.80;1.00
22288;DHT22;11312;51.464;6.968;2022-09-13T04:30:08;17.90;1.00
22288;DHT22;11312;51.464;6.968;2022-09-13T04:32:34;17.90;99.90
22288;DHT22;11312;51.464;6.968;2022-09-13T04:35:00;17.90;99.90
22288;DHT22;11312;51.464;6.968;2022-09-13T04:37:25;17.80;99.90
22288;DHT22;11312;51.464;6.968;2022-09-13T04:39:51;17.80;99.90
22288;DHT22;11312;51.464;6.968;2022-09-13T04:42:17;17.80;99.90
22288;DHT22;11312;51.464;6.968;2022-09-13T04:44:43;17.70;99.90
22288;DHT22;11312;51.464;6.968;2022-09-13T04:47:09;17.70;99.90
22288;DHT22;11312;51.464;6.968;2022-09-13T04:49:35;17.70;99.90
22288;DHT22;11312;51.464;6.968;2022-09-13T04:52:01;17.70;99.90
22288;DHT22;11312;51.464;6.968;2022-09-13T04:54:27;17.70;99.90
22288;DHT22;11312;51.464;6.968;2022-09-13T04:56:52;17.70;99.90
22288;DHT22;11312;51.464;6.968;2022-09-13T04:59:19;17.70;99.90
22288;DHT22;11312;51.464;6.968;2022-09-13T05:01:45;17.70;99.90
22288;DHT22;11312;51.464;6.968;2022-09-13T05:04:11;17.70;99.90
22288;DHT22;11312;51.464;6.968;2022-09-13T05:06:37;17.70;99.90
22288;DHT22;11312;51.464;6.968;2022-09-13T05:09:03;17.70;99.90
22288;DHT22;11312;51.464;6.968;2022-09-13T05:11:29;17.70;99.90
22288;DHT22;11312;51.464;6.968;2022-09-13T05:13:58;17.70;99.90
22288;DHT22;11312;51.464;6.968;2022-09-13T05:16:26;17.80;99.90
22288;DHT22;11312;51.464;6.968;2022-09-13T05:18:53;17.80;99.90
22288;DHT22;11312;51.464;6.968;2022-09-13T05:21:19;17.70;99.90
22288;DHT22;11312;51.464;6.968;2022-09-13T05:23:48;17.70;99.90
22288;DHT22;11312;51.464;6.968;2022-09-13T05:26:14;17.80;99.90
22288;DHT22;11312;51.464;6.968;2022-09-13T05:28:40;17.60;99.90
22288;DHT22;11312;51.464;6.968;2022-09-13T05:31:07;17.70;99.90
22288;DHT22;11312;51.464;6.968;2022-09-13T05:33:35;17.70;99.90
22288;DHT22;11312;51.464;6.968;2022-09-13T05:36:02;17.70;99.90
22288;DHT22;11312;51.464;6.968;2022-09-13T05:38:28;17.80;99.90
22288;DHT22;11312;51.464;6.968;2022-09-13T05:40:55;17.90;99.90
22288;DHT22;11312;51.464;6.968;2022-09-13T05:43:22;17.80;99.90
22288;DHT22;11312;51.464;6.968;2022-09-13T05:45:48;17.80;99.90
22288;DHT22;11312;51.464;6.968;2022-09-13T05:48:14;17.70;99.90
22288;DHT22;11312;51.464;6.968;2022-09-13T05:50:39;17.80;99.90
22288;DHT22;11312;51.464;6.968;2022-09-13T05:53:05;17.80;99.90
22288;DHT22;11312;51.464;6.968;2022-09-13T05:55:31;17.80;99.90
22288;DHT22;11312;51.464;6.968;2022-09-13T05:57:58;17.90;99.90
22288;DHT22;11312;51.464;6.968;2022-09-13T06:00:25;17.90;1.00
22288;DHT22;11312;51.464;6.968;2022-09-13T06:02:50;18.00;99.90
22288;DHT22;11312;51.464;6.968;2022-09-13T06:05:16;18.00;99.90
22288;DHT22;11312;51.464;6.968;2022-09-13T06:07:42;18.00;99.90
22288;DHT22;11312;51.464;6.968;2022-09-13T06:10:08;18.00;99.90
22288;DHT22;11312;51.464;6.968;2022-09-13T06:12:34;18.00;99.90
22288;DHT22;11312;51.464;6.968;2022-09-13T06:15:00;18.00;99.90
22288;DHT22;11312;51.464;6.968;2022-09-13T06:17:26;18.00;99.90
22288;DHT22;11312;51.464;6.968;2022-09-13T06:19:51;18.10;99.90
22288;DHT22;11312;51.464;6.968;2022-09-13T06:22:17;18.10;99.90
22288;DHT22;11312;51.464;6.968;2022-09-13T06:24:42;18.20;99.90
22288;DHT22;11312;51.464;6.968;2022-09-13T06:27:08;18.20;17.30
22288;DHT22;11312;51.464;6.968;2022-09-13T06:29:35;18.20;1.00
22288;DHT22;11312;51.464;6.968;2022-09-13T06:32:02;18.30;1.00
22288;DHT22;11312;51.464;6.968;2022-09-13T06:34:28;18.40;1.00
22288;DHT22;11312;51.464;6.968;2022-09-13T06:36:53;18.40;99.90
22288;DHT22;11312;51.464;6.968;2022-09-13T06:39:19;18.50;1.00
22288;DHT22;11312;51.464;6.968;2022-09-13T06:41:45;18.50;1.00
22288;DHT22;11312;51.464;6.968;2022-09-13T06:44:10;18.50;1.00
22288;DHT22;11312;51.464;6.968;2022-09-13T06:46:37;18.60;1.00
22288;DHT22;11312;51.464;6.968;2022-09-13T06:49:04;18.60;1.00
22288;DHT22;11312;51.464;6.968;2022-09-13T06:51:30;18.70;1.00
22288;DHT22;11312;51.464;6.968;2022-09-13T06:53:57;18.70;1.00
22288;DHT22;11312;51.464;6.968;2022-09-13T06:56:25;18.90;1.00
22288;DHT22;11312;51.464;6.968;2022-09-13T06:58:55;19.00;1.00
22288;DHT22;11312;51.464;6.968;2022-09-13T07:01:29;19.10;96.00
22288;DHT22;11312;51.464;6.968;2022-09-13T07:04:00;19.20;99.90
22288;DHT22;11312;51.464;6.968;2022-09-13T07:06:28;19.40;1.00
22288;DHT22;11312;51.464;6.968;2022-09-13T07:08:56;19.30;1.00
22288;DHT22;11312;51.464;6.968;2022-09-13T07:11:24;19.40;99.90
22288;DHT22;11312;51.464;6.968;2022-09-13T07:13:52;19.40;1.00
22288;DHT22;11312;51.464;6.968;2022-09-13T07:16:19;19.40;1.00
22288;DHT22;11312;51.464;6.968;2022-09-13T07:18:51;19.40;99.90
22288;DHT22;11312;51.464;6.968;2022-09-13T07:21:17;19.40;1.00
22288;DHT22;11312;51.464;6.968;2022-09-13T07:23:43;19.40;1.00
22288;DHT22;11312;51.464;6.968;2022-09-13T07:26:09;19.50;99.90
22288;DHT22;11312;51.464;6.968;2022-09-13T07:28:38;19.80;1.00
22288;DHT22;11312;51.464;6.968;2022-09-13T07:31:27;20.20;99.90
22288;DHT22;11312;51.464;6.968;2022-09-13T07:33:58;20.70;99.90
22288;DHT22;11312;51.464;6.968;2022-09-13T07:36:26;20.40;46.30
22288;DHT22;11312;51.464;6.968;2022-09-13T07:38:52;20.30;1.00
22288;DHT22;11312;51.464;6.968;2022-09-13T07:41:19;20.40;99.90
22288;DHT22;11312;51.464;6.968;2022-09-13T07:43:45;20.60;1.00
22288;DHT22;11312;51.464;6.968;2022-09-13T07:46:19;20.50;99.90
22288;DHT22;11312;51.464;6.968;2022-09-13T07:48:46;20.40;1.00
22288;DHT22;11312;51.464;6.968;2022-09-13T07:51:14;20.60;1.00
22288;DHT22;11312;51.464;6.968;2022-09-13T07:53:42;20.70;1.00
22288;DHT22;11312;51.464;6.968;2022-09-13T07:56:10;20.70;1.00
22288;DHT22;11312;51.464;6.968;2022-09-13T07:58:37;20.80;1.00
22288;DHT22;11312;51.464;6.968;2022-09-13T08:03:36;20.70;99.90
22288;DHT22;11312;51.464;6.968;2022-09-13T08:06:03;20.60;1.00
22288;DHT22;11312;51.464;6.968;2022-09-13T08:08:29;20.60;1.00
22288;DHT22;11312;51.464;6.968;2022-09-13T08:10:55;20.60;99.90
22288;DHT22;11312;51.464;6.968;2022-09-13T08:13:22;20.70;1.00
22288;DHT22;11312;51.464;6.968;2022-09-13T08:15:47;20.70;1.00
22288;DHT22;11312;51.464;6.968;2022-09-13T08:18:15;20.70;1.00
22288;DHT22;11312;51.464;6.968;2022-09-13T08:20:40;20.70;1.00
22288;DHT22;11312;51.464;6.968;2022-09-13T08:23:07;21.10;99.90
22288;DHT22;11312;51.464;6.968;2022-09-13T08:25:33;21.70;99.90
22288;DHT22;11312;51.464;6.968;2022-09-13T08:28:06;22.30;99.90
22288;DHT22;11312;51.464;6.968;2022-09-13T08:30:34;22.40;48.30
22288;DHT22;11312;51.464;6.968;2022-09-13T08:33:03;23.20;99.90
22288;DHT22;11312;51.464;6.968;2022-09-13T08:35:29;22.80;62.10
22288;DHT22;11312;51.464;6.968;2022-09-13T08:37:55;22.60;99.90
22288;DHT22;11312;51.464;6.968;2022-09-13T08:40:21;23.00;8.80
22288;DHT22;11312;51.464;6.968;2022-09-13T08:45:16;23.80;99.90
22288;DHT22;11312;51.464;6.968;2022-09-13T08:48:04;23.70;99.90
22288;DHT22;11312;51.464;6.968;2022-09-13T08:50:37;23.70;11.40
22288;DHT22;11312;51.464;6.968;2022-09-13T08:56:08;25.10;99.90
22288;DHT22;11312;51.464;6.968;2022-09-13T09:01:49;25.10;36.20
22288;DHT22;11312;51.464;6.968;2022-09-13T09:07:08;24.80;1.00
22288;DHT22;11312;51.464;6.968;2022-09-13T09:09:40;25.00;99.90
22288;DHT22;11312;51.464;6.968;2022-09-13T09:12:19;25.20;1.00
22288;DHT22;11312;51.464;6.968;2022-09-13T09:18:13;25.50;1.00
22288;DHT22;11312;51.464;6.968;2022-09-13T09:20:49;25.80;99.90
22288;DHT22;11312;51.464;6.968;2022-09-13T09:23:20;26.10;1.00
22288;DHT22;11312;51.464;6.968;2022-09-13T09:25:46;26.10;99.90
22288;DHT22;11312;51.464;6.968;2022-09-13T09:28:15;26.30;99.90
22288;DHT22;11312;51.464;6.968;2022-09-13T09:36:36;26.20;99.90
22288;DHT22;11312;51.464;6.968;2022-09-13T09:39:04;26.50;1.00
22288;DHT22;11312;51.464;6.968;2022-09-13T09:41:30;26.30;1.00
22288;DHT22;11312;51.464;6.968;2022-09-13T09:44:13;26.30;1.00
22288;DHT22;11312;51.464;6.968;2022-09-13T09:46:41;26.20;99.90
22288;DHT22;11312;51.464;6.968;2022-09-13T09:49:15;26.30;1.00
22288;DHT22;11312;51.464;6.968;2022-09-13T09:52:00;26.60;1.00
22288;DHT22;11312;51.464;6.968;2022-09-13T09:54:27;25.80;1.00
22288;DHT22;11312;51.464;6.968;2022-09-13T09:56:54;25.80;99.90
22288;DHT22;11312;51.464;6.968;2022-09-13T09:59:30;26.00;1.00
22288;DHT22;11312;51.464;6.968;2022-09-13T10:01:57;26.20;1.00
22288;DHT22;11312;51.464;6.968;2022-09-13T10:04:24;26.90;99.90
22288;DHT22;11312;51.464;6.968;2022-09-13T10:07:08;27.30;99.90
22288;DHT22;11312;51.464;6.968;2022-09-13T10:09:35;26.90;1.00
22288;DHT22;11312;51.464;6.968;2022-09-13T10:12:03;27.30;1.00
22288;DHT22;11312;51.464;6.968;2022-09-13T10:14:41;27.50;99.90
22288;DHT22;11312;51.464;6.968;2022-09-13T10:17:16;27.20;1.00
22288;DHT22;11312;51.464;6.968;2022-09-13T10:22:38;27.00;99.90
22288;DHT22;11312;51.464;6.968;2022-09-13T10:25:23;27.10;99.90
22288;DHT22;11312;51.464;6.968;2022-09-13T10:27:54;27.30;99.90
22288;DHT22;11312;51.464;6.968;2022-09-13T10:33:25;28.90;1.00
22288;DHT22;11312;51.464;6.968;2022-09-13T10:35:54;29.40;1.00
22288;DHT22;11312;51.464;6.968;2022-09-13T10:38:34;29.00;99.90
22288;DHT22;11312;51.464;6.968;2022-09-13T10:41:03;28.80;99.90
22288;DHT22;11312;51.464;6.968;2022-09-13T10:43:29;28.10;99.90
22288;DHT22;11312;51.464;6.968;2022-09-13T10:45:57;27.60;99.90
22288;DHT22;11312;51.464;6.968;2022-09-13T10:48:23;26.80;99.90
22288;DHT22;11312;51.464;6.968;2022-09-13T10:53:33;27.30;1.00
22288;DHT22;11312;51.464;6.968;2022-09-13T10:55:58;27.40;99.90
22288;DHT22;11312;51.464;6.968;2022-09-13T10:58:24;27.90;1.00
22288;DHT22;11312;51.464;6.968;2022-09-13T11:14:09;30.10;1.00
22288;DHT22;11312;51.464;6.968;2022-09-13T11:20:11;31.40;99.90
22288;DHT22;11312;51.464;6.968;2022-09-13T11:34:28;32.20;1.00
22288;DHT22;11312;51.464;6.968;2022-09-13T11:37:10;32.50;1.00
22288;DHT22;11312;51.464;6.968;2022-09-13T11:47:29;33.00;1.00
22288;DHT22;11312;51.464;6.968;2022-09-13T11:56:28;34.60;1.00
22288;DHT22;11312;51.464;6.968;2022-09-13T12:02:11;30.80;1.00
22288;DHT22;11312;51.464;6.968;2022-09-13T12:05:02;31.00;1.00
22288;DHT22;11312;51.464;6.968;2022-09-13T12:10:23;33.30;99.90
22288;DHT22;11312;51.464;6.968;2022-09-13T12:12:50;34.00;1.00
22288;DHT22;11312;51.464;6.968;2022-09-13T12:15:25;35.30;1.00
22288;DHT22;11312;51.464;6.968;2022-09-13T12:17:58;36.40;1.00
22288;DHT22;11312;51.464;6.968;2022-09-13T12:20:35;36.10;1.00
22288;DHT22;11312;51.464;6.968;2022-09-13T12:23:06;34.50;1.00
22288;DHT22;11312;51.464;6.968;2022-09-13T12:28:21;30.80;1.00
22288;DHT22;11312;51.464;6.968;2022-09-13T12:30:53;31.30;77.30
22288;DHT22;11312;51.464;6.968;2022-09-13T12:33:21;33.90;1.00
22288;DHT22;11312;51.464;6.968;2022-09-13T12:35:52;34.50;99.90
22288;DHT22;11312;51.464;6.968;2022-09-13T12:41:34;35.50;99.90
22288;DHT22;11312;51.464;6.968;2022-09-13T12:52:26;36.20;99.90
22288;DHT22;11312;51.464;6.968;2022-09-13T13:01:21;36.70;75.70
22288;DHT22;11312;51.464;6.968;2022-09-13T13:03:31;37.10;25.60
22288;DHT22;11312;51.464;6.968;2022-09-13T13:08:53;37.90;76.50
22288;DHT22;11312;51.464;6.968;2022-09-13T13:11:24;38.40;84.40
22288;DHT22;11312;51.464;6.968;2022-09-13T13:14:01;37.80;43.90
22288;DHT22;11312;51.464;6.968;2022-09-13T13:16:37;38.50;1.00
22288;DHT22;11312;51.464;6.968;2022-09-13T13:19:28;38.60;24.70
22288;DHT22;11312;51.464;6.968;2022-09-13T13:21:55;38.00;1.00
22288;DHT22;11312;51.464;6.968;2022-09-13T13:24:45;38.30;1.00
22288;DHT22;11312;51.464;6.968;2022-09-13T13:27:37;36.80;1.00
22288;DHT22;11312;51.464;6.968;2022-09-13T13:33:15;36.00;1.00
22288;DHT22;11312;51.464;6.968;2022-09-13T13:35:42;35.10;1.00
22288;DHT22;11312;51.464;6.968;2022-09-13T13:38:41;32.70;1.00
22288;DHT22;11312;51.464;6.968;2022-09-13T13:46:46;29.80;1.00
22288;DHT22;11312;51.464;6.968;2022-09-13T13:57:34;31.40;99.90
22288;DHT22;11312;51.464;6.968;2022-09-13T14:08:25;32.60;99.90
22288;DHT22;11312;51.464;6.968;2022-09-13T14:14:24;31.00;99.90
22288;DHT22;11312;51.464;6.968;2022-09-13T14:19:39;30.10;99.90
22288;DHT22;11312;51.464;6.968;2022-09-13T14:22:22;29.30;1.00
22288;DHT22;11312;51.464;6.968;2022-09-13T14:24:51;28.70;1.00
22288;DHT22;11312;51.464;6.968;2022-09-13T14:27:27;29.30;1.00
22288;DHT22;11312;51.464;6.968;2022-09-13T14:30:02;29.90;99.90
22288;DHT22;11312;51.464;6.968;2022-09-13T14:32:40;28.80;1.00
22288;DHT22;11312;51.464;6.968;2022-09-13T14:35:38;28.20;1.00
22288;DHT22;11312;51.464;6.968;2022-09-13T14:38:21;27.60;99.90
22288;DHT22;11312;51.464;6.968;2022-09-13T14:40:52;27.40;22.60
22288;DHT22;11312;51.464;6.968;2022-09-13T14:43:21;27.30;99.90
22288;DHT22;11312;51.464;6.968;2022-09-13T14:45:52;27.00;19.90
22288;DHT22;11312;51.464;6.968;2022-09-13T14:48:37;27.00;99.90
22288;DHT22;11312;51.464;6.968;2022-09-13T14:51:15;26.90;99.90
22288;DHT22;11312;51.464;6.968;2022-09-13T14:53:44;26.80;99.90
22288;DHT22;11312;51.464;6.968;2022-09-13T14:56:28;26.60;1.00
22288;DHT22;11312;51.464;6.968;2022-09-13T14:58:58;26.70;99.90
22288;DHT22;11312;51.464;6.968;2022-09-13T15:01:35;26.70;95.40
22288;DHT22;11312;51.464;6.968;2022-09-13T15:04:02;26.80;1.00
22288;DHT22;11312;51.464;6.968;2022-09-13T15:06:32;26.60;1.00
22288;DHT22;11312;51.464;6.968;2022-09-13T15:09:25;26.40;1.00
22288;DHT22;11312;51.464;6.968;2022-09-13T15:14:24;26.10;99.90
22288;DHT22;11312;51.464;6.968;2022-09-13T15:17:07;26.20;8.70
22288;DHT22;11312;51.464;6.968;2022-09-13T15:20:03;26.30;99.90
22288;DHT22;11312;51.464;6.968;2022-09-13T15:22:31;26.20;99.90
22288;DHT22;11312;51.464;6.968;2022-09-13T15:24:59;26.00;1.00
22288;DHT22;11312;51.464;6.968;2022-09-13T15:27:30;25.90;1.00
22288;DHT22;11312;51.464;6.968;2022-09-13T15:29:59;25.70;1.00
22288;DHT22;11312;51.464;6.968;2022-09-13T15:32:33;25.50;1.00
22288;DHT22;11312;51.464;6.968;2022-09-13T15:35:00;25.30;53.00
22288;DHT22;11312;51.464;6.968;2022-09-13T15:37:35;25.20;1.00
22288;DHT22;11312;51.464;6.968;2022-09-13T15:40:21;25.20;99.90
22288;DHT22;11312;51.464;6.968;2022-09-13T15:42:50;25.20;32.70
22288;DHT22;11312;51.464;6.968;2022-09-13T15:45:18;25.10;1.00
22288;DHT22;11312;51.464;6.968;2022-09-13T15:47:49;25.20;46.60
22288;DHT22;11312;51.464;6.968;2022-09-13T15:50:24;25.20;99.90
22288;DHT22;11312;51.464;6.968;2022-09-13T15:52:51;25.20;99.90
22288;DHT22;11312;51.464;6.968;2022-09-13T15:55:17;25.20;1.00
22288;DHT22;11312;51.464;6.968;2022-09-13T15:57:43;25.10;99.90
22288;DHT22;11312;51.464;6.968;2022-09-13T16:00:19;25.00;1.00
22288;DHT22;11312;51.464;6.968;2022-09-13T16:02:44;24.90;99.90
22288;DHT22;11312;51.464;6.968;2022-09-13T16:05:10;24.80;99.90
22288;DHT22;11312;51.464;6.968;2022-09-13T16:07:37;24.80;99.90
22288;DHT22;11312;51.464;6.968;2022-09-13T16:10:09;24.80;1.00
22288;DHT22;11312;51.464;6.968;2022-09-13T16:12:35;24.70;50.80
22288;DHT22;11312;51.464;6.968;2022-09-13T16:15:01;24.70;14.20
22288;DHT22;11312;51.464;6.968;2022-09-13T16:17:27;24.70;1.00
22288;DHT22;11312;51.464;6.968;2022-09-13T16:19:53;24.60;99.90
22288;DHT22;11312;51.464;6.968;2022-09-13T16:22:19;24.40;97.80
22288;DHT22;11312;51.464;6.968;2022-09-13T16:24:45;24.40;99.90
22288;DHT22;11312;51.464;6.968;2022-09-13T16:27:13;24.20;99.40
22288;DHT22;11312;51.464;6.968;2022-09-13T16:29:39;24.40;99.90
22288;DHT22;11312;51.464;6.968;2022-09-13T16:32:05;24.30;28.60
22288;DHT22;11312;51.464;6.968;2022-09-13T16:34:31;24.30;99.90
22288;DHT22;11312;51.464;6.968;2022-09-13T16:36:57;24.20;39.60
22288;DHT22;11312;51.464;6.968;2022-09-13T16:39:23;24.20;1.00
22288;DHT22;11312;51.464;6.968;2022-09-13T16:41:48;24.30;1.00
22288;DHT22;11312;51.464;6.968;2022-09-13T16:44:14;24.20;1.00
22288;DHT22;11312;51.464;6.968;2022-09-13T16:46:40;24.20;1.00
22288;DHT22;11312;51.464;6.968;2022-09-13T16:49:06;24.10;99.90
22288;DHT22;11312;51.464;6.968;2022-09-13T16:51:32;24.00;1.00
22288;DHT22;11312;51.464;6.968;2022-09-13T16:53:57;24.00;1.00
22288;DHT22;11312;51.464;6.968;2022-09-13T16:56:24;23.90;1.00
22288;DHT22;11312;51.464;6.968;2022-09-13T16:58:51;23.90;1.00
22288;DHT22;11312;51.464;6.968;2022-09-13T17:01:24;23.90;1.00
22288;DHT22;11312;51.464;6.968;2022-09-13T17:03:51;23.90;99.90
22288;DHT22;11312;51.464;6.968;2022-09-13T17:06:17;23.90;1.00
22288;DHT22;11312;51.464;6.968;2022-09-13T17:08:57;23.90;1.00
22288;DHT22;11312;51.464;6.968;2022-09-13T17:11:26;23.90;1.00
22288;DHT22;11312;51.464;6.968;2022-09-13T17:13:53;23.80;22.30
22288;DHT22;11312;51.464;6.968;2022-09-13T17:18:51;23.70;1.00
22288;DHT22;11312;51.464;6.968;2022-09-13T17:21:17;23.70;1.00
22288;DHT22;11312;51.464;6.968;2022-09-13T17:23:43;23.70;96.90
22288;DHT22;11312;51.464;6.968;2022-09-13T17:26:09;23.60;93.70
22288;DHT22;11312;51.464;6.968;2022-09-13T17:28:35;23.50;93.50
22288;DHT22;11312;51.464;6.968;2022-09-13T17:31:01;23.40;99.90
22288;DHT22;11312;51.464;6.968;2022-09-13T17:33:27;23.40;1.00
22288;DHT22;11312;51.464;6.968;2022-09-13T17:36:00;23.40;99.90
22288;DHT22;11312;51.464;6.968;2022-09-13T17:38:26;23.40;1.00
22288;DHT22;11312;51.464;6.968;2022-09-13T17:41:05;23.40;99.90
22288;DHT22;11312;51.464;6.968;2022-09-13T17:43:32;23.40;99.90
22288;DHT22;11312;51.464;6.968;2022-09-13T17:46:03;23.40;1.00
22288;DHT22;11312;51.464;6.968;2022-09-13T17:48:29;23.40;1.00
22288;DHT22;11312;51.464;6.968;2022-09-13T17:51:02;23.20;1.00
22288;DHT22;11312;51.464;6.968;2022-09-13T17:53:28;23.00;1.00
22288;DHT22;11312;51.464;6.968;2022-09-13T17:55:54;22.90;3.70
22288;DHT22;11312;51.464;6.968;2022-09-13T17:58:23;22.90;14.00
22288;DHT22;11312;51.464;6.968;2022-09-13T18:00:49;22.90;99.90
22288;DHT22;11312;51.464;6.968;2022-09-13T18:03:14;22.80;56.20
22288;DHT22;11312;51.464;6.968;2022-09-13T18:05:40;22.80;1.00
22288;DHT22;11312;51.464;6.968;2022-09-13T18:08:06;22.80;99.90
22288;DHT22;11312;51.464;6.968;2022-09-13T18:10:31;22.60;1.00
22288;DHT22;11312;51.464;6.968;2022-09-13T18:12:58;22.70;99.90
22288;DHT22;11312;51.464;6.968;2022-09-13T18:15:24;22.70;99.90
22288;DHT22;11312;51.464;6.968;2022-09-13T18:17:49;22.60;99.90
22288;DHT22;11312;51.464;6.968;2022-09-13T18:20:15;22.60;99.90
22288;DHT22;11312;51.464;6.968;2022-09-13T18:22:41;22.60;99.90
22288;DHT22;11312;51.464;6.968;2022-09-13T18:25:07;22.50;1.00
22288;DHT22;11312;51.464;6.968;2022-09-13T18:27:32;22.40;1.00
22288;DHT22;11312;51.464;6.968;2022-09-13T18:29:58;22.40;99.90
22288;DHT22;11312;51.464;6.968;2022-09-13T18:32:23;22.40;45.30
22288;DHT22;11312;51.464;6.968;2022-09-13T18:34:49;22.40;99.90
22288;DHT22;11312;51.464;6.968;2022-09-13T18:37:14;22.30;99.90
22288;DHT22;11312;51.464;6.968;2022-09-13T18:39:40;22.40;99.90
22288;DHT22;11312;51.464;6.968;2022-09-13T18:42:06;22.30;99.90
22288;DHT22;11312;51.464;6.968;2022-09-13T18:44:31;22.30;1.00
22288;DHT22;11312;51.464;6.968;2022-09-13T18:46:58;22.30;1.00
22288;DHT22;11312;51.464;6.968;2022-09-13T18:49:25;22.20;1.00
22288;DHT22;11312;51.464;6.968;2022-09-13T18:51:50;22.20;1.00
22288;DHT22;11312;51.464;6.968;2022-09-13T18:54:17;22.20;1.00
22288;DHT22;11312;51.464;6.968;2022-09-13T18:56:44;22.20;1.00